createdAt,value
2018-07-15T00:01:06.430Z,83.90
2018-07-15T00:03:35.930Z,84.00
2018-07-15T00:06:05.481Z,84.30
2018-07-15T00:08:35.069Z,84.20
2018-07-15T00:11:04.601Z,84.20
2018-07-15T00:13:34.055Z,84.20
2018-07-15T00:16:03.721Z,84.10
2018-07-15T00:18:33.155Z,84.30
2018-07-15T00:21:02.923Z,84.20
2018-07-15T00:23:32.550Z,84.40
2018-07-15T00:26:01.943Z,84.70
2018-07-15T00:28:31.371Z,84.40
2018-07-15T00:31:00.859Z,84.40
2018-07-15T00:33:30.326Z,84.20
2018-07-15T00:35:59.756Z,84.40
2018-07-15T00:38:29.126Z,84.40
2018-07-15T00:40:58.550Z,84.40
2018-07-15T00:43:27.962Z,84.50
2018-07-15T00:45:57.371Z,84.50
2018-07-15T00:48:26.861Z,84.20
2018-07-15T00:50:56.261Z,83.50
2018-07-15T00:53:25.699Z,84.30
2018-07-15T00:55:55.155Z,83.60
2018-07-15T00:58:24.578Z,82.40
2018-07-15T01:00:59.237Z,81.90
2018-07-15T01:03:28.614Z,81.80
2018-07-15T01:05:58.053Z,81.20
2018-07-15T01:08:27.458Z,82.80
2018-07-15T01:10:56.933Z,83.00
2018-07-15T01:13:26.418Z,83.10
2018-07-15T01:15:55.827Z,83.00
2018-07-15T01:18:25.462Z,83.00
2018-07-15T01:20:54.987Z,82.80
2018-07-15T01:23:24.469Z,82.30
2018-07-15T01:25:53.945Z,81.30
2018-07-15T01:28:23.333Z,82.20
2018-07-15T01:30:53.141Z,82.50
2018-07-15T01:33:22.553Z,80.30
2018-07-15T01:35:58.180Z,79.90
2018-07-15T01:38:27.612Z,80.30
2018-07-15T01:40:57.021Z,80.70
2018-07-15T01:43:26.426Z,80.50
2018-07-15T01:45:55.914Z,80.50
2018-07-15T01:48:25.329Z,80.30
2018-07-15T01:50:54.873Z,80.70
2018-07-15T01:53:24.337Z,80.10
2018-07-15T01:55:53.759Z,80.10
2018-07-15T01:58:23.282Z,80.30
2018-07-15T02:00:52.753Z,80.50
2018-07-15T02:03:22.148Z,80.80
2018-07-15T02:05:51.583Z,80.60
2018-07-15T02:08:21.066Z,80.90
2018-07-15T02:10:50.510Z,80.60
2018-07-15T02:13:19.961Z,81.20
2018-07-15T02:15:49.403Z,81.40
2018-07-15T02:18:18.837Z,81.30
2018-07-15T02:20:48.268Z,81.10
2018-07-15T02:23:17.679Z,80.40
2018-07-15T02:25:47.176Z,81.90
2018-07-15T02:28:16.579Z,81.70
2018-07-15T02:30:45.966Z,82.60
2018-07-15T02:33:15.429Z,81.80
2018-07-15T02:35:45.542Z,81.80
2018-07-15T02:38:14.918Z,81.90
2018-07-15T02:40:44.262Z,81.90
2018-07-15T02:43:13.635Z,82.20
2018-07-15T02:45:43.030Z,82.10
2018-07-15T02:48:12.441Z,82.20
2018-07-15T02:50:41.842Z,82.50
2018-07-15T02:53:11.239Z,82.50
2018-07-15T02:55:40.624Z,82.20
2018-07-15T02:58:10.055Z,82.40
2018-07-15T03:00:40.031Z,82.60
2018-07-15T03:03:09.484Z,82.70
2018-07-15T03:05:38.858Z,82.80
2018-07-15T03:08:08.331Z,82.80
2018-07-15T03:10:38.378Z,82.90
2018-07-15T03:13:07.924Z,83.20
2018-07-15T03:15:37.505Z,83.40
2018-07-15T03:18:06.947Z,83.40
2018-07-15T03:20:36.525Z,83.70
2018-07-15T03:23:06.515Z,83.60
2018-07-15T03:25:36.002Z,83.60
2018-07-15T03:28:05.555Z,83.80
2018-07-15T03:30:35.132Z,83.80
2018-07-15T03:33:04.632Z,83.70
2018-07-15T03:35:34.101Z,83.80
2018-07-15T03:38:03.545Z,84.90
2018-07-15T03:40:33.743Z,84.40
2018-07-15T03:43:03.212Z,83.80
2018-07-15T03:45:32.679Z,83.90
2018-07-15T03:48:02.816Z,83.70
2018-07-15T03:50:32.372Z,83.70
2018-07-15T03:53:01.851Z,83.40
2018-07-15T03:55:31.235Z,83.20
2018-07-15T03:58:00.693Z,83.20
2018-07-15T04:00:30.138Z,82.10
2018-07-15T04:02:59.563Z,81.90
2018-07-15T04:05:29.004Z,82.00
2018-07-15T04:07:58.404Z,82.30
2018-07-15T04:10:27.806Z,82.30
2018-07-15T04:12:57.314Z,82.00
2018-07-15T04:15:26.751Z,82.00
2018-07-15T04:18:01.492Z,80.90
2018-07-15T04:20:30.988Z,81.50
2018-07-15T04:23:00.915Z,81.50
2018-07-15T04:25:30.598Z,81.50
2018-07-15T04:27:59.938Z,81.70
2018-07-15T04:30:29.270Z,80.70
2018-07-15T04:32:58.615Z,81.10
2018-07-15T04:35:28.072Z,81.00
2018-07-15T04:37:57.584Z,81.10
2018-07-15T04:40:27.018Z,81.20
2018-07-15T04:42:56.471Z,81.40
2018-07-15T04:45:25.886Z,81.30
2018-07-15T04:47:55.300Z,81.30
2018-07-15T04:50:24.677Z,81.10
2018-07-15T04:52:54.276Z,81.20
2018-07-15T04:55:23.705Z,81.10
2018-07-15T04:57:53.123Z,80.90
2018-07-15T05:00:22.505Z,81.60
2018-07-15T05:02:52.106Z,81.10
2018-07-15T05:05:21.554Z,81.60
2018-07-15T05:07:50.926Z,82.00
2018-07-15T05:10:20.356Z,81.20
2018-07-15T05:12:49.782Z,80.90
2018-07-15T05:15:19.180Z,80.70
2018-07-15T05:17:48.623Z,80.60
2018-07-15T05:20:18.085Z,81.00
2018-07-15T05:22:47.434Z,81.40
2018-07-15T05:25:16.834Z,81.20
2018-07-15T05:27:46.325Z,80.20
2018-07-15T05:30:15.759Z,80.20
2018-07-15T05:32:45.195Z,80.40
2018-07-15T05:35:14.583Z,80.30
2018-07-15T05:37:43.995Z,80.20
2018-07-15T05:40:13.384Z,80.10
2018-07-15T05:42:42.954Z,80.10
2018-07-15T05:45:12.574Z,80.10
2018-07-15T05:47:41.978Z,79.90
2018-07-15T05:50:11.517Z,79.40
2018-07-15T05:52:40.941Z,79.60
2018-07-15T05:55:10.338Z,79.60
2018-07-15T05:57:39.934Z,79.90
2018-07-15T06:00:09.628Z,80.00
2018-07-15T06:02:39.208Z,80.10
2018-07-15T06:05:09.070Z,80.10
2018-07-15T06:07:38.436Z,79.80
2018-07-15T06:10:07.955Z,80.00
2018-07-15T06:12:37.448Z,79.90
2018-07-15T06:15:06.962Z,80.30
2018-07-15T06:17:36.420Z,80.20
2018-07-15T06:20:07.766Z,79.90
2018-07-15T06:22:37.220Z,80.10
2018-07-15T06:25:07.695Z,79.60
2018-07-15T06:27:37.527Z,79.70
2018-07-15T06:30:07.174Z,79.40
2018-07-15T06:32:36.635Z,79.70
2018-07-15T06:35:06.626Z,79.60
2018-07-15T06:37:36.332Z,79.50
2018-07-15T06:40:06.666Z,79.20
2018-07-15T06:42:36.285Z,78.40
2018-07-15T06:45:05.756Z,78.40
2018-07-15T06:47:35.707Z,78.60
2018-07-15T06:50:05.410Z,78.40
2018-07-15T06:52:35.022Z,77.70
2018-07-15T06:55:05.143Z,77.30
2018-07-15T06:57:35.557Z,77.50
2018-07-15T07:00:05.137Z,77.50
2018-07-15T07:02:34.753Z,77.30
2018-07-15T07:05:04.238Z,75.60
2018-07-15T07:10:02.985Z,74.80
2018-07-15T07:12:32.418Z,74.40
2018-07-15T07:15:01.858Z,74.20
2018-07-15T07:17:31.259Z,74.50
2018-07-15T07:20:00.778Z,73.10
2018-07-15T07:22:30.147Z,73.80
2018-07-15T07:24:59.496Z,73.10
2018-07-15T07:27:28.846Z,72.30
2018-07-15T07:29:58.199Z,69.70
2018-07-15T07:32:27.607Z,71.00
2018-07-15T07:34:56.941Z,70.50
2018-07-15T07:37:26.341Z,71.10
2018-07-15T07:39:55.789Z,71.20
2018-07-15T07:42:25.446Z,69.60
2018-07-15T07:44:55.034Z,68.40
2018-07-15T07:47:24.425Z,68.90
2018-07-15T07:49:53.886Z,68.40
2018-07-15T07:52:23.374Z,67.50
2018-07-15T07:54:52.885Z,68.20
2018-07-15T07:57:22.239Z,68.00
2018-07-15T07:59:51.604Z,66.70
2018-07-15T08:02:21.060Z,65.50
2018-07-15T08:04:50.434Z,64.90
2018-07-15T08:07:19.823Z,64.40
2018-07-15T08:12:18.554Z,65.10
2018-07-15T08:14:47.947Z,62.90
2018-07-15T08:17:17.326Z,61.10
2018-07-15T08:19:46.799Z,60.90
2018-07-15T08:22:16.392Z,60.70
2018-07-15T08:24:45.885Z,61.80
2018-07-15T08:27:15.263Z,62.20
2018-07-15T08:30:00.564Z,61.70
2018-07-15T08:32:30.037Z,59.50
2018-07-15T08:34:59.580Z,59.60
2018-07-15T08:37:29.263Z,59.30
2018-07-15T08:39:58.683Z,57.70
2018-07-15T08:42:28.065Z,58.40
2018-07-15T08:44:57.775Z,57.80
2018-07-15T08:47:27.189Z,59.90
2018-07-15T08:49:56.618Z,60.10
2018-07-15T08:52:26.224Z,57.80
2018-07-15T08:54:55.616Z,57.60
2018-07-15T08:57:25.012Z,58.60
2018-07-15T08:59:54.535Z,57.50
2018-07-15T09:02:24.832Z,58.70
2018-07-15T09:04:54.348Z,60.20
2018-07-15T09:07:23.851Z,55.10
2018-07-15T09:09:53.442Z,53.40
2018-07-15T09:12:22.983Z,53.90
2018-07-15T09:14:52.446Z,54.80
2018-07-15T09:17:21.947Z,55.70
2018-07-15T09:19:51.313Z,55.10
2018-07-15T09:22:20.801Z,56.70
2018-07-15T09:24:50.181Z,55.70
2018-07-15T09:27:19.615Z,53.80
2018-07-15T09:29:49.048Z,53.10
2018-07-15T09:32:18.417Z,53.20
2018-07-15T09:34:47.794Z,53.20
2018-07-15T09:37:17.105Z,55.40
2018-07-15T09:39:46.569Z,54.10
2018-07-15T09:42:16.003Z,56.60
2018-07-15T09:44:45.436Z,54.00
2018-07-15T09:47:15.057Z,56.30
2018-07-15T09:49:44.512Z,55.10
2018-07-15T09:52:13.864Z,52.30
2018-07-15T09:54:43.315Z,52.10
2018-07-15T09:57:12.688Z,49.70
2018-07-15T09:59:42.102Z,48.10
2018-07-15T10:02:11.495Z,48.90
2018-07-15T10:04:40.909Z,49.30
2018-07-15T10:07:11.018Z,47.90
2018-07-15T10:09:41.367Z,48.00
2018-07-15T10:12:10.824Z,51.40
2018-07-15T10:14:40.179Z,53.90
2018-07-15T10:17:09.599Z,52.60
2018-07-15T10:19:39.086Z,51.10
2018-07-15T10:22:08.565Z,50.20
2018-07-15T10:24:38.044Z,50.80
2018-07-15T10:27:07.678Z,52.80
2018-07-15T10:29:37.274Z,51.10
2018-07-15T10:32:07.068Z,47.20
2018-07-15T10:34:36.647Z,48.10
2018-07-15T10:37:06.214Z,48.00
2018-07-15T10:39:35.670Z,49.70
2018-07-15T10:42:05.243Z,51.70
2018-07-15T10:44:34.883Z,51.80
2018-07-15T10:47:04.768Z,51.70
2018-07-15T10:49:34.226Z,50.40
2018-07-15T10:52:03.668Z,50.70
2018-07-15T10:54:33.116Z,52.00
2018-07-15T10:57:02.612Z,53.10
2018-07-15T10:59:32.373Z,55.40
2018-07-15T11:02:01.706Z,57.40
2018-07-15T11:04:31.364Z,53.30
2018-07-15T11:07:00.818Z,50.80
2018-07-15T11:09:30.490Z,52.30
2018-07-15T11:11:59.999Z,50.30
2018-07-15T11:14:29.554Z,49.70
2018-07-15T11:16:59.097Z,47.70
2018-07-15T11:19:28.705Z,50.40
2018-07-15T11:24:27.874Z,51.30
2018-07-15T11:26:57.373Z,51.90
2018-07-15T11:29:26.832Z,52.00
2018-07-15T11:31:56.335Z,50.20
2018-07-15T11:34:25.787Z,51.00
2018-07-15T11:36:55.584Z,52.20
2018-07-15T11:39:25.012Z,53.20
2018-07-15T11:41:55.633Z,53.40
2018-07-15T11:44:25.048Z,53.90
2018-07-15T11:46:55.401Z,55.10
2018-07-15T11:49:24.780Z,52.80
2018-07-15T11:51:54.173Z,51.40
2018-07-15T11:54:23.596Z,53.30
2018-07-15T11:56:55.579Z,52.50
2018-07-15T12:01:56.795Z,51.70
2018-07-15T12:04:26.265Z,50.30
2018-07-15T12:06:55.811Z,49.50
2018-07-15T12:09:25.204Z,51.50
2018-07-15T12:11:54.813Z,49.50
2018-07-15T12:14:24.347Z,49.10
2018-07-15T12:16:53.755Z,50.60
2018-07-15T12:19:23.237Z,49.10
2018-07-15T12:21:52.752Z,49.70
2018-07-15T12:24:22.349Z,51.40
2018-07-15T12:26:51.725Z,48.00
2018-07-15T12:29:21.255Z,46.70
2018-07-15T12:31:50.788Z,48.50
2018-07-15T12:34:20.662Z,48.90
2018-07-15T12:36:50.093Z,47.80
2018-07-15T12:39:19.543Z,48.50
2018-07-15T12:41:49.079Z,45.00
2018-07-15T12:44:18.600Z,46.70
2018-07-15T12:46:48.023Z,44.90
2018-07-15T12:49:17.482Z,45.90
2018-07-15T12:51:47.500Z,44.30
2018-07-15T12:54:16.999Z,44.40
2018-07-15T12:56:46.462Z,44.10
2018-07-15T12:59:15.866Z,45.90
2018-07-15T13:01:45.369Z,46.50
2018-07-15T13:04:14.769Z,46.60
2018-07-15T13:06:44.213Z,46.60
2018-07-15T13:09:13.597Z,47.70
2018-07-15T13:11:42.986Z,49.00
2018-07-15T13:14:12.425Z,50.70
2018-07-15T13:16:41.807Z,49.90
2018-07-15T13:19:11.482Z,50.70
2018-07-15T13:21:41.898Z,51.00
2018-07-15T13:24:11.403Z,48.30
2018-07-15T13:26:40.785Z,47.20
2018-07-15T13:29:10.423Z,49.20
2018-07-15T13:31:40.897Z,49.60
2018-07-15T13:34:11.397Z,48.60
2018-07-15T13:36:40.836Z,50.10
2018-07-15T13:41:39.651Z,49.60
2018-07-15T13:44:09.021Z,49.80
2018-07-15T13:46:38.416Z,49.10
2018-07-15T13:49:07.647Z,50.60
2018-07-15T13:51:37.309Z,51.00
2018-07-15T13:54:06.897Z,51.60
2018-07-15T13:56:36.399Z,51.50
2018-07-15T13:59:06.007Z,51.00
2018-07-15T14:01:35.513Z,51.10
2018-07-15T14:04:05.250Z,52.50
2018-07-15T14:06:34.773Z,50.70
2018-07-15T14:09:05.140Z,48.80
2018-07-15T14:11:34.711Z,49.50
2018-07-15T14:14:04.256Z,51.10
2018-07-15T14:16:33.705Z,52.70
2018-07-15T14:19:03.814Z,53.40
2018-07-15T14:21:33.449Z,53.50
2018-07-15T14:24:05.939Z,51.90
2018-07-15T14:26:35.572Z,54.40
2018-07-15T14:29:05.358Z,59.10
2018-07-15T14:31:34.997Z,58.80
2018-07-15T14:34:04.629Z,60.80
2018-07-15T14:36:34.197Z,65.30
2018-07-15T14:39:03.815Z,64.40
2018-07-15T14:41:33.502Z,67.00
2018-07-15T14:44:03.024Z,67.60
2018-07-15T14:46:32.633Z,68.50
2018-07-15T14:49:02.115Z,67.10
2018-07-15T14:51:32.136Z,67.60
2018-07-15T14:54:01.779Z,68.50
2018-07-15T14:56:31.231Z,68.10
2018-07-15T14:59:00.748Z,68.80
2018-07-15T15:01:30.190Z,67.20
2018-07-15T15:03:59.646Z,67.70
2018-07-15T15:06:29.120Z,66.60
2018-07-15T15:08:58.545Z,65.30
2018-07-15T15:11:28.198Z,66.00
2018-07-15T15:13:57.706Z,68.40
2018-07-15T15:16:27.114Z,67.20
2018-07-15T15:18:56.610Z,66.40
2018-07-15T15:21:26.067Z,64.30
2018-07-15T15:23:55.524Z,66.10
2018-07-15T15:26:25.014Z,69.20
2018-07-15T15:28:57.876Z,68.90
2018-07-15T15:31:27.325Z,70.20
2018-07-15T15:33:56.819Z,71.50
2018-07-15T15:36:26.415Z,71.50
2018-07-15T15:38:55.791Z,71.10
2018-07-15T15:41:25.218Z,70.00
2018-07-15T15:43:54.625Z,70.50
2018-07-15T15:46:25.130Z,70.40
2018-07-15T15:48:54.563Z,70.70
2018-07-15T15:51:23.966Z,72.20
2018-07-15T15:53:53.455Z,72.90
2018-07-15T15:56:22.898Z,73.50
2018-07-15T15:58:52.347Z,73.40
2018-07-15T16:01:21.808Z,74.00
2018-07-15T16:03:51.287Z,73.40
2018-07-15T16:06:20.710Z,73.70
2018-07-15T16:08:50.129Z,72.90
2018-07-15T16:11:19.613Z,74.00
2018-07-15T16:13:49.092Z,73.70
2018-07-15T16:16:18.515Z,74.30
2018-07-15T16:18:48.004Z,75.10
2018-07-15T16:21:17.596Z,73.80
2018-07-15T16:23:47.024Z,74.30
2018-07-15T16:26:16.749Z,72.80
2018-07-15T16:28:46.126Z,73.40
2018-07-15T16:31:15.526Z,72.70
2018-07-15T16:33:44.991Z,73.00
2018-07-15T16:36:14.420Z,72.20
2018-07-15T16:38:44.002Z,72.90
2018-07-15T16:41:13.392Z,73.90
2018-07-15T16:43:43.182Z,73.70
2018-07-15T16:46:12.647Z,73.00
2018-07-15T16:48:42.105Z,73.50
2018-07-15T16:51:11.520Z,71.80
2018-07-15T16:53:41.075Z,72.70
2018-07-15T16:56:10.584Z,73.20
2018-07-15T16:58:40.068Z,71.90
2018-07-15T17:01:09.521Z,71.20
2018-07-15T17:03:39.008Z,71.10
2018-07-15T17:06:08.593Z,70.10
2018-07-15T17:08:38.159Z,71.10
2018-07-15T17:11:08.100Z,71.40
2018-07-15T17:13:37.610Z,71.80
2018-07-15T17:16:07.448Z,72.00
2018-07-15T17:21:06.470Z,69.30
2018-07-15T17:23:36.045Z,68.70
2018-07-15T17:26:06.101Z,69.10
2018-07-15T17:28:35.825Z,68.40
2018-07-15T17:31:05.438Z,68.40
2018-07-15T17:33:34.916Z,69.10
2018-07-15T17:36:04.515Z,67.70
2018-07-15T17:38:35.219Z,67.50
2018-07-15T17:41:05.328Z,67.70
2018-07-15T17:43:37.840Z,66.80
2018-07-15T17:46:08.505Z,67.60
2018-07-15T17:48:38.496Z,66.60
2018-07-15T17:51:08.092Z,66.00
2018-07-15T17:53:38.193Z,65.20
2018-07-15T17:56:07.717Z,65.50
2018-07-15T17:58:37.763Z,65.20
2018-07-15T18:01:07.463Z,63.90
2018-07-15T18:03:37.224Z,65.00
2018-07-15T18:06:07.560Z,64.60
2018-07-15T18:08:37.142Z,65.90
2018-07-15T18:11:06.659Z,66.10
2018-07-15T18:13:36.332Z,67.00
2018-07-15T18:16:06.435Z,67.10
2018-07-15T18:18:35.894Z,66.50
2018-07-15T18:21:05.427Z,66.00
2018-07-15T18:23:37.023Z,66.50
2018-07-15T18:26:06.960Z,66.90
2018-07-15T18:28:36.589Z,66.80
2018-07-15T18:31:06.152Z,66.90
2018-07-15T18:33:35.726Z,67.10
2018-07-15T18:36:05.409Z,67.30
2018-07-15T18:38:35.021Z,66.00
2018-07-15T18:41:04.570Z,66.00
2018-07-15T18:43:34.023Z,66.10
2018-07-15T18:46:03.740Z,65.60
2018-07-15T18:48:33.403Z,66.10
2018-07-15T18:51:03.015Z,65.40
2018-07-15T18:53:32.558Z,66.70
2018-07-15T18:56:02.110Z,66.20
2018-07-15T18:58:31.588Z,66.70
2018-07-15T19:01:01.188Z,65.60
2018-07-15T19:03:30.621Z,66.10
2018-07-15T19:05:59.962Z,65.50
2018-07-15T19:08:30.449Z,66.40
2018-07-15T19:11:00.010Z,65.60
2018-07-15T19:13:29.411Z,65.70
2018-07-15T19:15:59.002Z,65.60
2018-07-15T19:18:28.415Z,65.60
2018-07-15T19:20:58.134Z,65.90
2018-07-15T19:23:27.642Z,65.80
2018-07-15T19:25:57.290Z,65.70
2018-07-15T19:28:26.911Z,65.80
2018-07-15T19:30:56.368Z,66.00
2018-07-15T19:33:25.744Z,66.40
2018-07-15T19:35:55.342Z,65.70
2018-07-15T19:38:24.925Z,65.70
2018-07-15T19:40:55.463Z,66.00
2018-07-15T19:43:25.062Z,66.00
2018-07-15T19:45:54.490Z,65.90
2018-07-15T19:48:23.867Z,66.80
2018-07-15T19:50:53.333Z,67.70
2018-07-15T19:53:22.848Z,67.80
2018-07-15T19:55:52.315Z,68.20
2018-07-15T19:58:21.720Z,67.20
2018-07-15T20:00:51.242Z,67.70
2018-07-15T20:03:20.651Z,66.40
2018-07-15T20:05:52.170Z,66.30
2018-07-15T20:08:21.673Z,65.50
2018-07-15T20:10:51.107Z,66.50
2018-07-15T20:13:20.507Z,66.50
2018-07-15T20:15:50.044Z,67.10
2018-07-15T20:18:19.439Z,65.90
2018-07-15T20:20:49.003Z,67.10
2018-07-15T20:23:21.596Z,67.60
2018-07-15T20:25:51.366Z,67.20
2018-07-15T20:28:20.760Z,67.80
2018-07-15T20:30:50.130Z,67.60
2018-07-15T20:33:19.588Z,67.40
2018-07-15T20:35:49.004Z,67.10
2018-07-15T20:38:18.404Z,67.30
2018-07-15T20:40:47.817Z,68.30
2018-07-15T20:45:46.532Z,68.40
2018-07-15T20:48:15.893Z,69.00
2018-07-15T20:50:45.287Z,69.10
2018-07-15T20:53:15.400Z,68.80
2018-07-15T20:55:45.201Z,69.80
2018-07-15T20:58:14.613Z,70.20
2018-07-15T21:00:44.183Z,70.40
2018-07-15T21:03:13.589Z,70.80
2018-07-15T21:05:43.005Z,70.40
2018-07-15T21:08:12.490Z,70.60
2018-07-15T21:10:41.936Z,69.90
2018-07-15T21:13:11.496Z,70.40
2018-07-15T21:15:40.879Z,71.20
2018-07-15T21:18:10.339Z,69.80
2018-07-15T21:20:39.749Z,70.60
2018-07-15T21:23:09.225Z,71.70
2018-07-15T21:25:38.692Z,71.90
2018-07-15T21:28:08.130Z,72.50
2018-07-15T21:30:37.918Z,72.00
2018-07-15T21:33:07.407Z,72.50
2018-07-15T21:35:36.937Z,72.10
2018-07-15T21:38:06.609Z,72.10
2018-07-15T21:40:35.945Z,72.60
2018-07-15T21:43:05.405Z,73.20
2018-07-15T21:45:34.817Z,73.70
2018-07-15T21:48:04.233Z,73.30
2018-07-15T21:50:33.737Z,73.90
2018-07-15T21:53:03.338Z,74.00
2018-07-15T21:55:32.712Z,74.10
2018-07-15T22:00:31.333Z,73.70
2018-07-15T22:03:00.966Z,74.40
2018-07-15T22:05:30.355Z,75.20
2018-07-15T22:08:16.719Z,75.30
2018-07-15T22:10:47.270Z,75.10
2018-07-15T22:13:16.805Z,75.20
2018-07-15T22:15:46.496Z,75.80
2018-07-15T22:18:15.886Z,75.60
2018-07-15T22:20:45.268Z,75.80
2018-07-15T22:23:14.631Z,75.60
2018-07-15T22:25:44.010Z,75.30
2018-07-15T22:28:13.461Z,75.90
2018-07-15T22:30:43.177Z,75.60
2018-07-15T22:33:12.546Z,75.80
2018-07-15T22:35:41.965Z,76.00
2018-07-15T22:38:12.446Z,76.20
2018-07-15T22:40:41.793Z,76.10
2018-07-15T22:43:11.177Z,76.00
2018-07-15T22:45:40.554Z,75.90
2018-07-15T22:48:09.966Z,76.30
2018-07-15T22:50:39.345Z,76.50
2018-07-15T22:53:08.766Z,76.60
2018-07-15T22:55:38.137Z,76.40
2018-07-15T22:58:07.539Z,76.30
2018-07-15T23:00:36.951Z,76.90
2018-07-15T23:03:06.303Z,76.40
2018-07-15T23:05:54.679Z,76.90
2018-07-15T23:08:25.223Z,77.00
2018-07-15T23:10:54.722Z,77.10
2018-07-15T23:13:24.312Z,77.20
2018-07-15T23:15:53.728Z,74.50
2018-07-15T23:18:23.477Z,73.00
2018-07-15T23:20:52.951Z,73.40
2018-07-15T23:23:22.374Z,73.00
2018-07-15T23:25:51.879Z,72.90
2018-07-15T23:28:21.281Z,73.10
2018-07-15T23:30:50.765Z,72.90
2018-07-15T23:33:20.172Z,72.70
2018-07-15T23:35:49.549Z,72.80
2018-07-15T23:38:18.916Z,72.90
2018-07-15T23:40:48.301Z,72.90
2018-07-15T23:43:17.772Z,72.40
2018-07-15T23:45:47.201Z,72.80
2018-07-15T23:48:16.735Z,73.80
2018-07-15T23:50:46.468Z,73.50
2018-07-15T23:53:15.893Z,73.30
2018-07-15T23:55:45.252Z,72.90
2018-07-15T23:58:14.631Z,73.10
